sensor_id;sensor_type;location;lat;lon;timestamp;temperature;humidity
23671;DHT22;12012;51.998;7.614;2023-11-19T00:02:12;9.90;99.90
23671;DHT22;12012;51.998;7.614;2023-11-19T00:04:38;9.90;99.90
23671;DHT22;12012;51.998;7.614;2023-11-19T00:07:06;9.90;99.90
23671;DHT22;12012;51.998;7.614;2023-11-19T00:09:36;9.90;99.90
23671;DHT22;12012;51.998;7.614;2023-11-19T00:12:03;9.90;99.90
23671;DHT22;12012;51.998;7.614;2023-11-19T00:14:30;10.00;99.90
23671;DHT22;12012;51.998;7.614;2023-11-19T00:16:55;10.00;99.90
23671;DHT22;12012;51.998;7.614;2023-11-19T00:19:21;10.00;99.90
23671;DHT22;12012;51.998;7.614;2023-11-19T00:21:47;10.00;99.90
23671;DHT22;12012;51.998;7.614;2023-11-19T00:24:12;10.10;99.90
23671;DHT22;12012;51.998;7.614;2023-11-19T00:26:38;10.10;99.90
23671;DHT22;12012;51.998;7.614;2023-11-19T00:29:04;10.10;99.90
23671;DHT22;12012;51.998;7.614;2023-11-19T00:31:29;10.20;99.90
23671;DHT22;12012;51.998;7.614;2023-11-19T00:33:55;10.20;99.90
23671;DHT22;12012;51.998;7.614;2023-11-19T00:36:21;10.20;99.90
23671;DHT22;12012;51.998;7.614;2023-11-19T00:38:49;10.20;99.90
23671;DHT22;12012;51.998;7.614;2023-11-19T00:41:15;10.20;99.90
23671;DHT22;12012;51.998;7.614;2023-11-19T00:43:42;10.20;99.90
23671;DHT22;12012;51.998;7.614;2023-11-19T00:46:07;10.30;99.90
23671;DHT22;12012;51.998;7.614;2023-11-19T00:48:33;10.30;99.90
23671;DHT22;12012;51.998;7.614;2023-11-19T00:50:59;10.30;99.90
23671;DHT22;12012;51.998;7.614;2023-11-19T00:53:25;10.30;99.90
23671;DHT22;12012;51.998;7.614;2023-11-19T00:55:50;10.40;99.90
23671;DHT22;12012;51.998;7.614;2023-11-19T00:58:16;10.40;99.90
23671;DHT22;12012;51.998;7.614;2023-11-19T01:00:43;10.40;99.90
23671;DHT22;12012;51.998;7.614;2023-11-19T01:03:10;10.40;99.90
23671;DHT22;12012;51.998;7.614;2023-11-19T01:05:36;10.40;99.90
23671;DHT22;12012;51.998;7.614;2023-11-19T01:08:02;10.40;99.90
23671;DHT22;12012;51.998;7.614;2023-11-19T01:10:30;10.50;99.90
23671;DHT22;12012;51.998;7.614;2023-11-19T01:12:55;10.50;99.90
23671;DHT22;12012;51.998;7.614;2023-11-19T01:15:21;10.50;99.90
23671;DHT22;12012;51.998;7.614;2023-11-19T01:17:46;10.50;99.90
23671;DHT22;12012;51.998;7.614;2023-11-19T01:20:12;10.60;99.90
23671;DHT22;12012;51.998;7.614;2023-11-19T01:22:39;10.60;99.90
23671;DHT22;12012;51.998;7.614;2023-11-19T01:25:06;10.60;99.90
23671;DHT22;12012;51.998;7.614;2023-11-19T01:27:31;10.70;99.90
23671;DHT22;12012;51.998;7.614;2023-11-19T01:30:00;10.70;99.90
23671;DHT22;12012;51.998;7.614;2023-11-19T01:32:27;10.70;99.90
23671;DHT22;12012;51.998;7.614;2023-11-19T01:34:52;10.70;99.90
23671;DHT22;12012;51.998;7.614;2023-11-19T01:37:18;10.80;99.90
23671;DHT22;12012;51.998;7.614;2023-11-19T01:39:44;10.80;99.90
23671;DHT22;12012;51.998;7.614;2023-11-19T01:42:10;10.80;99.90
23671;DHT22;12012;51.998;7.614;2023-11-19T01:44:37;10.80;99.90
23671;DHT22;12012;51.998;7.614;2023-11-19T01:47:03;10.80;99.90
23671;DHT22;12012;51.998;7.614;2023-11-19T01:49:31;10.90;99.90
23671;DHT22;12012;51.998;7.614;2023-11-19T01:51:57;10.90;99.90
23671;DHT22;12012;51.998;7.614;2023-11-19T01:54:23;10.90;99.90
23671;DHT22;12012;51.998;7.614;2023-11-19T01:56:49;11.00;99.90
23671;DHT22;12012;51.998;7.614;2023-11-19T01:59:15;11.00;99.90
23671;DHT22;12012;51.998;7.614;2023-11-19T02:01:41;11.00;99.90
23671;DHT22;12012;51.998;7.614;2023-11-19T02:04:08;11.00;99.90
23671;DHT22;12012;51.998;7.614;2023-11-19T02:06:34;11.00;99.90
23671;DHT22;12012;51.998;7.614;2023-11-19T02:09:01;11.00;99.90
23671;DHT22;12012;51.998;7.614;2023-11-19T02:11:33;11.10;99.90
23671;DHT22;12012;51.998;7.614;2023-11-19T02:13:59;11.10;99.90
23671;DHT22;12012;51.998;7.614;2023-11-19T02:16:25;11.10;99.90
23671;DHT22;12012;51.998;7.614;2023-11-19T02:18:50;11.20;99.90
23671;DHT22;12012;51.998;7.614;2023-11-19T02:21:16;11.20;99.90
23671;DHT22;12012;51.998;7.614;2023-11-19T02:23:43;11.20;99.90
23671;DHT22;12012;51.998;7.614;2023-11-19T02:26:13;11.20;99.90
23671;DHT22;12012;51.998;7.614;2023-11-19T02:28:40;11.20;99.90
23671;DHT22;12012;51.998;7.614;2023-11-19T02:31:07;11.30;99.90
23671;DHT22;12012;51.998;7.614;2023-11-19T02:33:38;11.30;99.90
23671;DHT22;12012;51.998;7.614;2023-11-19T02:36:05;11.40;99.90
23671;DHT22;12012;51.998;7.614;2023-11-19T02:38:33;11.40;99.90
23671;DHT22;12012;51.998;7.614;2023-11-19T02:40:59;11.40;99.90
23671;DHT22;12012;51.998;7.614;2023-11-19T02:43:27;11.40;99.90
23671;DHT22;12012;51.998;7.614;2023-11-19T02:45:53;11.40;99.90
23671;DHT22;12012;51.998;7.614;2023-11-19T02:48:21;11.50;99.90
23671;DHT22;12012;51.998;7.614;2023-11-19T02:50:46;11.50;99.90
23671;DHT22;12012;51.998;7.614;2023-11-19T02:53:13;11.50;99.90
23671;DHT22;12012;51.998;7.614;2023-11-19T02:55:39;11.50;99.90
23671;DHT22;12012;51.998;7.614;2023-11-19T02:58:06;11.60;99.90
23671;DHT22;12012;51.998;7.614;2023-11-19T03:00:45;11.60;99.90
23671;DHT22;12012;51.998;7.614;2023-11-19T03:03:17;11.60;99.90
23671;DHT22;12012;51.998;7.614;2023-11-19T03:05:46;11.60;99.90
23671;DHT22;12012;51.998;7.614;2023-11-19T03:08:12;11.60;99.90
23671;DHT22;12012;51.998;7.614;2023-11-19T03:10:38;11.70;99.90
23671;DHT22;12012;51.998;7.614;2023-11-19T03:13:04;11.70;99.90
23671;DHT22;12012;51.998;7.614;2023-11-19T03:15:30;11.70;99.90
23671;DHT22;12012;51.998;7.614;2023-11-19T03:17:55;11.70;99.90
23671;DHT22;12012;51.998;7.614;2023-11-19T03:20:21;11.80;99.90
23671;DHT22;12012;51.998;7.614;2023-11-19T03:22:49;11.80;99.90
23671;DHT22;12012;51.998;7.614;2023-11-19T03:25:16;11.80;99.90
23671;DHT22;12012;51.998;7.614;2023-11-19T03:27:43;11.90;99.90
23671;DHT22;12012;51.998;7.614;2023-11-19T03:30:09;11.90;99.90
23671;DHT22;12012;51.998;7.614;2023-11-19T03:32:35;12.00;99.90
23671;DHT22;12012;51.998;7.614;2023-11-19T03:35:01;12.00;99.90
23671;DHT22;12012;51.998;7.614;2023-11-19T03:37:27;12.00;99.90
23671;DHT22;12012;51.998;7.614;2023-11-19T03:39:57;12.10;99.90
23671;DHT22;12012;51.998;7.614;2023-11-19T03:42:28;12.10;99.90
23671;DHT22;12012;51.998;7.614;2023-11-19T03:44:56;12.10;99.90
23671;DHT22;12012;51.998;7.614;2023-11-19T03:47:22;12.10;99.90
23671;DHT22;12012;51.998;7.614;2023-11-19T03:49:48;12.20;99.90
23671;DHT22;12012;51.998;7.614;2023-11-19T03:52:14;12.20;99.90
23671;DHT22;12012;51.998;7.614;2023-11-19T03:54:40;12.20;99.90
23671;DHT22;12012;51.998;7.614;2023-11-19T03:57:05;12.30;99.90
23671;DHT22;12012;51.998;7.614;2023-11-19T03:59:31;12.20;99.90
23671;DHT22;12012;51.998;7.614;2023-11-19T04:01:58;12.30;99.90
23671;DHT22;12012;51.998;7.614;2023-11-19T04:04:26;12.30;99.90
23671;DHT22;12012;51.998;7.614;2023-11-19T04:06:53;12.30;99.90
23671;DHT22;12012;51.998;7.614;2023-11-19T04:09:18;12.30;99.90
23671;DHT22;12012;51.998;7.614;2023-11-19T04:11:44;12.20;99.90
23671;DHT22;12012;51.998;7.614;2023-11-19T04:14:14;12.30;99.90
23671;DHT22;12012;51.998;7.614;2023-11-19T04:16:43;12.20;99.90
23671;DHT22;12012;51.998;7.614;2023-11-19T04:19:09;12.20;99.90
23671;DHT22;12012;51.998;7.614;2023-11-19T04:21:34;12.20;99.90
23671;DHT22;12012;51.998;7.614;2023-11-19T04:24:00;12.20;99.90
23671;DHT22;12012;51.998;7.614;2023-11-19T04:26:26;12.30;99.90
23671;DHT22;12012;51.998;7.614;2023-11-19T04:28:51;12.30;99.90
23671;DHT22;12012;51.998;7.614;2023-11-19T04:31:17;12.20;99.90
23671;DHT22;12012;51.998;7.614;2023-11-19T04:33:44;12.20;99.90
23671;DHT22;12012;51.998;7.614;2023-11-19T04:36:12;12.20;99.90
23671;DHT22;12012;51.998;7.614;2023-11-19T04:38:39;12.20;99.90
23671;DHT22;12012;51.998;7.614;2023-11-19T04:41:06;12.20;99.90
23671;DHT22;12012;51.998;7.614;2023-11-19T04:43:32;12.20;99.90
23671;DHT22;12012;51.998;7.614;2023-11-19T04:45:57;12.20;99.90
23671;DHT22;12012;51.998;7.614;2023-11-19T04:48:23;12.20;99.90
23671;DHT22;12012;51.998;7.614;2023-11-19T04:50:49;12.10;99.90
23671;DHT22;12012;51.998;7.614;2023-11-19T04:53:16;12.10;99.90
23671;DHT22;12012;51.998;7.614;2023-11-19T04:55:42;12.10;99.90
23671;DHT22;12012;51.998;7.614;2023-11-19T04:58:08;12.10;99.90
23671;DHT22;12012;51.998;7.614;2023-11-19T05:00:33;12.10;99.90
23671;DHT22;12012;51.998;7.614;2023-11-19T05:02:59;12.10;99.90
23671;DHT22;12012;51.998;7.614;2023-11-19T05:05:24;12.10;99.90
23671;DHT22;12012;51.998;7.614;2023-11-19T05:07:50;12.10;99.90
23671;DHT22;12012;51.998;7.614;2023-11-19T05:10:15;12.00;99.90
23671;DHT22;12012;51.998;7.614;2023-11-19T05:12:41;12.00;99.90
23671;DHT22;12012;51.998;7.614;2023-11-19T05:15:07;12.00;99.90
23671;DHT22;12012;51.998;7.614;2023-11-19T05:17:33;12.00;99.90
23671;DHT22;12012;51.998;7.614;2023-11-19T05:19:59;12.00;99.90
23671;DHT22;12012;51.998;7.614;2023-11-19T05:22:25;12.00;99.90
23671;DHT22;12012;51.998;7.614;2023-11-19T05:24:51;12.00;99.90
23671;DHT22;12012;51.998;7.614;2023-11-19T05:27:17;12.00;99.90
23671;DHT22;12012;51.998;7.614;2023-11-19T05:29:43;12.00;99.90
23671;DHT22;12012;51.998;7.614;2023-11-19T05:32:09;11.90;99.90
23671;DHT22;12012;51.998;7.614;2023-11-19T05:34:35;11.90;99.90
23671;DHT22;12012;51.998;7.614;2023-11-19T05:37:01;11.90;99.90
23671;DHT22;12012;51.998;7.614;2023-11-19T05:39:28;11.90;99.90
23671;DHT22;12012;51.998;7.614;2023-11-19T05:41:53;11.80;99.90
23671;DHT22;12012;51.998;7.614;2023-11-19T05:44:19;11.80;99.90
23671;DHT22;12012;51.998;7.614;2023-11-19T05:46:45;11.80;99.90
23671;DHT22;12012;51.998;7.614;2023-11-19T05:49:11;11.80;99.90
23671;DHT22;12012;51.998;7.614;2023-11-19T05:51:40;11.80;99.90
23671;DHT22;12012;51.998;7.614;2023-11-19T05:54:09;11.80;99.90
23671;DHT22;12012;51.998;7.614;2023-11-19T05:56:36;11.80;99.90
23671;DHT22;12012;51.998;7.614;2023-11-19T05:59:01;11.80;99.90
23671;DHT22;12012;51.998;7.614;2023-11-19T06:01:29;11.80;99.90
23671;DHT22;12012;51.998;7.614;2023-11-19T06:03:55;11.80;99.90
23671;DHT22;12012;51.998;7.614;2023-11-19T06:06:20;11.80;99.90
23671;DHT22;12012;51.998;7.614;2023-11-19T06:08:46;11.90;99.90
23671;DHT22;12012;51.998;7.614;2023-11-19T06:11:12;11.90;99.90
23671;DHT22;12012;51.998;7.614;2023-11-19T06:13:44;11.90;99.90
23671;DHT22;12012;51.998;7.614;2023-11-19T06:16:10;11.80;99.90
23671;DHT22;12012;51.998;7.614;2023-11-19T06:18:38;11.80;99.90
23671;DHT22;12012;51.998;7.614;2023-11-19T06:21:04;11.80;99.90
23671;DHT22;12012;51.998;7.614;2023-11-19T06:23:30;11.80;99.90
23671;DHT22;12012;51.998;7.614;2023-11-19T06:25:56;11.80;99.90
23671;DHT22;12012;51.998;7.614;2023-11-19T06:28:22;11.80;99.90
23671;DHT22;12012;51.998;7.614;2023-11-19T06:30:48;11.80;99.90
23671;DHT22;12012;51.998;7.614;2023-11-19T06:33:13;11.80;99.90
23671;DHT22;12012;51.998;7.614;2023-11-19T06:35:39;11.70;99.90
23671;DHT22;12012;51.998;7.614;2023-11-19T06:38:05;11.80;99.90
23671;DHT22;12012;51.998;7.614;2023-11-19T06:40:31;11.70;99.90
23671;DHT22;12012;51.998;7.614;2023-11-19T06:42:57;11.80;99.90
23671;DHT22;12012;51.998;7.614;2023-11-19T06:45:23;11.80;99.90
23671;DHT22;12012;51.998;7.614;2023-11-19T06:47:48;11.80;99.90
23671;DHT22;12012;51.998;7.614;2023-11-19T06:50:14;11.80;97.80
23671;DHT22;12012;51.998;7.614;2023-11-19T06:52:40;11.80;97.40
23671;DHT22;12012;51.998;7.614;2023-11-19T06:55:06;11.80;97.40
23671;DHT22;12012;51.998;7.614;2023-11-19T06:57:32;11.80;97.10
23671;DHT22;12012;51.998;7.614;2023-11-19T06:59:58;11.80;98.40
23671;DHT22;12012;51.998;7.614;2023-11-19T07:02:24;11.80;97.20
23671;DHT22;12012;51.998;7.614;2023-11-19T07:04:50;11.80;96.80
23671;DHT22;12012;51.998;7.614;2023-11-19T07:07:16;11.80;97.00
23671;DHT22;12012;51.998;7.614;2023-11-19T07:09:41;11.80;97.30
23671;DHT22;12012;51.998;7.614;2023-11-19T07:12:07;11.80;96.60
23671;DHT22;12012;51.998;7.614;2023-11-19T07:14:33;11.80;96.00
23671;DHT22;12012;51.998;7.614;2023-11-19T07:16:59;11.80;95.20
23671;DHT22;12012;51.998;7.614;2023-11-19T07:19:25;11.80;95.10
23671;DHT22;12012;51.998;7.614;2023-11-19T07:21:51;11.80;93.30
23671;DHT22;12012;51.998;7.614;2023-11-19T07:24:19;11.80;93.80
23671;DHT22;12012;51.998;7.614;2023-11-19T07:26:46;11.80;93.80
23671;DHT22;12012;51.998;7.614;2023-11-19T07:29:13;11.80;92.10
23671;DHT22;12012;51.998;7.614;2023-11-19T07:31:38;11.80;92.60
23671;DHT22;12012;51.998;7.614;2023-11-19T07:34:04;11.80;92.60
23671;DHT22;12012;51.998;7.614;2023-11-19T07:36:32;11.90;91.00
23671;DHT22;12012;51.998;7.614;2023-11-19T07:38:58;11.90;88.30
23671;DHT22;12012;51.998;7.614;2023-11-19T07:41:24;11.80;88.90
23671;DHT22;12012;51.998;7.614;2023-11-19T07:43:50;11.90;89.50
23671;DHT22;12012;51.998;7.614;2023-11-19T07:46:17;11.90;89.80
23671;DHT22;12012;51.998;7.614;2023-11-19T07:48:45;11.90;89.70
23671;DHT22;12012;51.998;7.614;2023-11-19T07:51:12;11.90;88.50
23671;DHT22;12012;51.998;7.614;2023-11-19T07:53:38;11.90;88.50
23671;DHT22;12012;51.998;7.614;2023-11-19T07:56:05;11.90;88.40
23671;DHT22;12012;51.998;7.614;2023-11-19T07:58:31;12.00;86.80
23671;DHT22;12012;51.998;7.614;2023-11-19T08:00:56;12.00;85.50
23671;DHT22;12012;51.998;7.614;2023-11-19T08:03:22;12.00;85.70
23671;DHT22;12012;51.998;7.614;2023-11-19T08:05:48;12.00;84.50
23671;DHT22;12012;51.998;7.614;2023-11-19T08:08:14;12.00;86.40
23671;DHT22;12012;51.998;7.614;2023-11-19T08:10:40;12.00;86.10
23671;DHT22;12012;51.998;7.614;2023-11-19T08:13:06;12.10;82.20
23671;DHT22;12012;51.998;7.614;2023-11-19T08:15:32;12.10;80.20
23671;DHT22;12012;51.998;7.614;2023-11-19T08:17:58;12.10;79.10
23671;DHT22;12012;51.998;7.614;2023-11-19T08:20:24;12.10;79.40
23671;DHT22;12012;51.998;7.614;2023-11-19T08:22:49;12.20;75.20
23671;DHT22;12012;51.998;7.614;2023-11-19T08:25:15;12.20;72.20
23671;DHT22;12012;51.998;7.614;2023-11-19T08:27:41;12.20;68.20
23671;DHT22;12012;51.998;7.614;2023-11-19T08:30:07;12.20;71.40
23671;DHT22;12012;51.998;7.614;2023-11-19T08:32:34;12.20;72.30
23671;DHT22;12012;51.998;7.614;2023-11-19T08:34:59;12.20;71.40
23671;DHT22;12012;51.998;7.614;2023-11-19T08:37:25;12.10;73.00
23671;DHT22;12012;51.998;7.614;2023-11-19T08:39:51;12.10;72.40
23671;DHT22;12012;51.998;7.614;2023-11-19T08:42:17;12.10;74.60
23671;DHT22;12012;51.998;7.614;2023-11-19T08:44:43;12.10;71.40
23671;DHT22;12012;51.998;7.614;2023-11-19T08:47:12;12.10;68.40
23671;DHT22;12012;51.998;7.614;2023-11-19T08:49:38;12.10;67.20
23671;DHT22;12012;51.998;7.614;2023-11-19T08:52:05;12.20;66.30
23671;DHT22;12012;51.998;7.614;2023-11-19T08:54:32;12.20;65.50
23671;DHT22;12012;51.998;7.614;2023-11-19T08:56:58;12.20;66.30
23671;DHT22;12012;51.998;7.614;2023-11-19T08:59:24;12.30;57.20
23671;DHT22;12012;51.998;7.614;2023-11-19T09:01:50;12.40;55.70
23671;DHT22;12012;51.998;7.614;2023-11-19T09:04:16;12.40;55.90
23671;DHT22;12012;51.998;7.614;2023-11-19T09:06:41;12.50;54.10
23671;DHT22;12012;51.998;7.614;2023-11-19T09:09:08;12.50;45.50
23671;DHT22;12012;51.998;7.614;2023-11-19T09:11:33;12.60;39.70
23671;DHT22;12012;51.998;7.614;2023-11-19T09:13:59;12.60;39.40
23671;DHT22;12012;51.998;7.614;2023-11-19T09:16:25;12.70;40.90
23671;DHT22;12012;51.998;7.614;2023-11-19T09:18:51;12.70;40.90
23671;DHT22;12012;51.998;7.614;2023-11-19T09:21:17;12.80;34.00
23671;DHT22;12012;51.998;7.614;2023-11-19T09:23:43;13.00;27.80
23671;DHT22;12012;51.998;7.614;2023-11-19T09:26:09;13.00;26.10
23671;DHT22;12012;51.998;7.614;2023-11-19T09:28:37;12.90;25.90
23671;DHT22;12012;51.998;7.614;2023-11-19T09:31:03;13.00;23.60
23671;DHT22;12012;51.998;7.614;2023-11-19T09:33:31;13.10;20.60
23671;DHT22;12012;51.998;7.614;2023-11-19T09:35:57;13.20;10.10
23671;DHT22;12012;51.998;7.614;2023-11-19T09:38:23;13.20;10.00
23671;DHT22;12012;51.998;7.614;2023-11-19T09:40:48;13.10;13.90
23671;DHT22;12012;51.998;7.614;2023-11-19T09:43:15;13.10;15.30
23671;DHT22;12012;51.998;7.614;2023-11-19T09:45:49;13.00;14.70
23671;DHT22;12012;51.998;7.614;2023-11-19T09:48:18;12.90;20.30
23671;DHT22;12012;51.998;7.614;2023-11-19T09:50:46;12.80;21.00
23671;DHT22;12012;51.998;7.614;2023-11-19T09:53:12;12.90;14.00
23671;DHT22;12012;51.998;7.614;2023-11-19T09:55:38;12.90;14.80
23671;DHT22;12012;51.998;7.614;2023-11-19T09:58:05;13.00;13.00
23671;DHT22;12012;51.998;7.614;2023-11-19T10:00:32;13.00;9.70
23671;DHT22;12012;51.998;7.614;2023-11-19T10:02:59;13.00;10.70
23671;DHT22;12012;51.998;7.614;2023-11-19T10:05:25;13.00;10.70
23671;DHT22;12012;51.998;7.614;2023-11-19T10:07:52;13.00;10.80
23671;DHT22;12012;51.998;7.614;2023-11-19T10:10:18;13.00;9.00
23671;DHT22;12012;51.998;7.614;2023-11-19T10:12:47;13.10;5.80
23671;DHT22;12012;51.998;7.614;2023-11-19T10:15:21;13.10;4.10
23671;DHT22;12012;51.998;7.614;2023-11-19T10:17:48;13.10;3.70
23671;DHT22;12012;51.998;7.614;2023-11-19T10:20:13;13.10;9.50
23671;DHT22;12012;51.998;7.614;2023-11-19T10:22:39;13.10;1.00
23671;DHT22;12012;51.998;7.614;2023-11-19T10:25:26;13.10;1.00
23671;DHT22;12012;51.998;7.614;2023-11-19T10:27:52;13.00;2.70
23671;DHT22;12012;51.998;7.614;2023-11-19T10:30:22;13.00;1.00
23671;DHT22;12012;51.998;7.614;2023-11-19T10:33:10;13.00;1.00
23671;DHT22;12012;51.998;7.614;2023-11-19T10:38:24;13.00;1.00
23671;DHT22;12012;51.998;7.614;2023-11-19T10:40:51;13.00;1.00
23671;DHT22;12012;51.998;7.614;2023-11-19T10:43:18;13.00;3.70
23671;DHT22;12012;51.998;7.614;2023-11-19T10:45:44;13.00;7.70
23671;DHT22;12012;51.998;7.614;2023-11-19T10:48:10;13.00;4.70
23671;DHT22;12012;51.998;7.614;2023-11-19T10:50:40;13.00;2.20
23671;DHT22;12012;51.998;7.614;2023-11-19T10:53:07;13.00;5.90
23671;DHT22;12012;51.998;7.614;2023-11-19T10:55:35;13.00;7.00
23671;DHT22;12012;51.998;7.614;2023-11-19T10:58:02;13.00;9.60
23671;DHT22;12012;51.998;7.614;2023-11-19T11:00:30;12.90;6.40
23671;DHT22;12012;51.998;7.614;2023-11-19T11:03:03;12.90;8.70
23671;DHT22;12012;51.998;7.614;2023-11-19T11:05:32;12.90;12.70
23671;DHT22;12012;51.998;7.614;2023-11-19T11:08:00;12.80;10.80
23671;DHT22;12012;51.998;7.614;2023-11-19T11:10:28;12.80;12.00
23671;DHT22;12012;51.998;7.614;2023-11-19T11:12:59;12.80;14.70
23671;DHT22;12012;51.998;7.614;2023-11-19T11:15:29;12.80;12.80
23671;DHT22;12012;51.998;7.614;2023-11-19T11:17:59;12.80;14.80
23671;DHT22;12012;51.998;7.614;2023-11-19T11:20:30;12.80;14.40
23671;DHT22;12012;51.998;7.614;2023-11-19T11:23:19;12.90;9.80
23671;DHT22;12012;51.998;7.614;2023-11-19T11:29:03;13.00;2.50
23671;DHT22;12012;51.998;7.614;2023-11-19T11:31:42;13.20;1.00
23671;DHT22;12012;51.998;7.614;2023-11-19T11:34:24;13.20;1.00
23671;DHT22;12012;51.998;7.614;2023-11-19T11:39:36;13.30;1.00
23671;DHT22;12012;51.998;7.614;2023-11-19T11:50:09;13.70;1.00
23671;DHT22;12012;51.998;7.614;2023-11-19T11:55:37;13.70;1.00
23671;DHT22;12012;51.998;7.614;2023-11-19T11:58:20;13.70;1.00
23671;DHT22;12012;51.998;7.614;2023-11-19T12:00:47;13.60;1.00
23671;DHT22;12012;51.998;7.614;2023-11-19T12:03:13;13.60;1.00
23671;DHT22;12012;51.998;7.614;2023-11-19T12:05:48;13.50;1.00
23671;DHT22;12012;51.998;7.614;2023-11-19T12:08:15;13.50;1.00
23671;DHT22;12012;51.998;7.614;2023-11-19T12:13:14;13.30;1.00
23671;DHT22;12012;51.998;7.614;2023-11-19T12:20:50;13.30;1.00
23671;DHT22;12012;51.998;7.614;2023-11-19T12:23:16;13.20;1.00
23671;DHT22;12012;51.998;7.614;2023-11-19T12:25:41;13.20;1.00
23671;DHT22;12012;51.998;7.614;2023-11-19T12:28:12;13.20;1.00
23671;DHT22;12012;51.998;7.614;2023-11-19T12:30:38;13.40;1.00
23671;DHT22;12012;51.998;7.614;2023-11-19T12:33:11;14.30;1.00
23671;DHT22;12012;51.998;7.614;2023-11-19T12:35:45;15.60;99.90
23671;DHT22;12012;51.998;7.614;2023-11-19T12:38:24;16.00;1.00
23671;DHT22;12012;51.998;7.614;2023-11-19T12:41:09;15.70;99.90
23671;DHT22;12012;51.998;7.614;2023-11-19T12:43:37;15.40;99.90
23671;DHT22;12012;51.998;7.614;2023-11-19T12:46:24;15.10;99.90
23671;DHT22;12012;51.998;7.614;2023-11-19T12:48:50;14.80;99.90
23671;DHT22;12012;51.998;7.614;2023-11-19T12:51:16;14.50;99.90
23671;DHT22;12012;51.998;7.614;2023-11-19T12:53:49;14.30;99.90
23671;DHT22;12012;51.998;7.614;2023-11-19T12:56:15;14.30;99.90
23671;DHT22;12012;51.998;7.614;2023-11-19T12:58:41;14.60;99.90
23671;DHT22;12012;51.998;7.614;2023-11-19T13:01:08;14.90;99.90
23671;DHT22;12012;51.998;7.614;2023-11-19T13:03:38;15.00;99.90
23671;DHT22;12012;51.998;7.614;2023-11-19T13:06:09;15.00;99.90
23671;DHT22;12012;51.998;7.614;2023-11-19T13:08:54;14.90;99.90
23671;DHT22;12012;51.998;7.614;2023-11-19T13:11:35;14.70;99.90
23671;DHT22;12012;51.998;7.614;2023-11-19T13:14:03;14.40;99.90
23671;DHT22;12012;51.998;7.614;2023-11-19T13:16:37;14.30;99.90
23671;DHT22;12012;51.998;7.614;2023-11-19T13:19:04;14.10;99.90
23671;DHT22;12012;51.998;7.614;2023-11-19T13:21:30;13.90;99.90
23671;DHT22;12012;51.998;7.614;2023-11-19T13:23:56;13.80;1.00
23671;DHT22;12012;51.998;7.614;2023-11-19T13:26:22;13.60;1.00
23671;DHT22;12012;51.998;7.614;2023-11-19T13:28:48;13.50;1.00
23671;DHT22;12012;51.998;7.614;2023-11-19T13:31:14;13.30;99.90
23671;DHT22;12012;51.998;7.614;2023-11-19T13:33:40;13.20;99.90
23671;DHT22;12012;51.998;7.614;2023-11-19T13:36:06;13.00;99.90
23671;DHT22;12012;51.998;7.614;2023-11-19T13:38:36;12.90;1.00
23671;DHT22;12012;51.998;7.614;2023-11-19T13:41:02;12.80;68.60
23671;DHT22;12012;51.998;7.614;2023-11-19T13:43:29;12.70;99.90
23671;DHT22;12012;51.998;7.614;2023-11-19T13:45:55;12.70;99.90
23671;DHT22;12012;51.998;7.614;2023-11-19T13:48:22;12.50;1.00
23671;DHT22;12012;51.998;7.614;2023-11-19T13:50:47;12.50;1.00
23671;DHT22;12012;51.998;7.614;2023-11-19T13:53:13;12.40;99.90
23671;DHT22;12012;51.998;7.614;2023-11-19T13:55:39;12.30;99.90
23671;DHT22;12012;51.998;7.614;2023-11-19T13:58:04;12.30;99.90
23671;DHT22;12012;51.998;7.614;2023-11-19T14:00:30;12.30;99.90
23671;DHT22;12012;51.998;7.614;2023-11-19T14:02:55;12.30;1.00
23671;DHT22;12012;51.998;7.614;2023-11-19T14:05:21;12.20;99.90
23671;DHT22;12012;51.998;7.614;2023-11-19T14:07:46;12.20;1.00
23671;DHT22;12012;51.998;7.614;2023-11-19T14:10:17;12.30;1.00
23671;DHT22;12012;51.998;7.614;2023-11-19T14:12:42;13.00;99.90
23671;DHT22;12012;51.998;7.614;2023-11-19T14:15:09;13.20;99.90
23671;DHT22;12012;51.998;7.614;2023-11-19T14:17:38;13.20;84.60
23671;DHT22;12012;51.998;7.614;2023-11-19T14:20:04;13.20;1.00
23671;DHT22;12012;51.998;7.614;2023-11-19T14:22:44;13.10;1.00
23671;DHT22;12012;51.998;7.614;2023-11-19T14:25:10;13.00;1.00
23671;DHT22;12012;51.998;7.614;2023-11-19T14:27:37;12.90;1.00
23671;DHT22;12012;51.998;7.614;2023-11-19T14:30:05;12.90;12.20
23671;DHT22;12012;51.998;7.614;2023-11-19T14:32:30;12.90;61.10
23671;DHT22;12012;51.998;7.614;2023-11-19T14:34:56;12.90;95.40
23671;DHT22;12012;51.998;7.614;2023-11-19T14:37:22;12.90;42.00
23671;DHT22;12012;51.998;7.614;2023-11-19T14:39:47;12.80;99.90
23671;DHT22;12012;51.998;7.614;2023-11-19T14:42:15;12.80;15.90
23671;DHT22;12012;51.998;7.614;2023-11-19T14:44:40;12.80;99.90
23671;DHT22;12012;51.998;7.614;2023-11-19T14:47:06;12.80;99.90
23671;DHT22;12012;51.998;7.614;2023-11-19T14:49:36;12.80;45.90
23671;DHT22;12012;51.998;7.614;2023-11-19T14:52:04;12.80;24.20
23671;DHT22;12012;51.998;7.614;2023-11-19T14:54:30;12.80;62.40
23671;DHT22;12012;51.998;7.614;2023-11-19T14:56:56;12.80;99.90
23671;DHT22;12012;51.998;7.614;2023-11-19T14:59:22;12.70;99.90
23671;DHT22;12012;51.998;7.614;2023-11-19T15:01:47;12.70;99.90
23671;DHT22;12012;51.998;7.614;2023-11-19T15:04:13;12.70;99.90
23671;DHT22;12012;51.998;7.614;2023-11-19T15:06:38;12.60;99.90
23671;DHT22;12012;51.998;7.614;2023-11-19T15:09:04;12.60;99.90
23671;DHT22;12012;51.998;7.614;2023-11-19T15:11:30;12.50;99.90
23671;DHT22;12012;51.998;7.614;2023-11-19T15:13:56;12.50;1.00
23671;DHT22;12012;51.998;7.614;2023-11-19T15:16:22;12.40;1.00
23671;DHT22;12012;51.998;7.614;2023-11-19T15:18:57;12.40;41.00
23671;DHT22;12012;51.998;7.614;2023-11-19T15:21:25;12.40;99.90
23671;DHT22;12012;51.998;7.614;2023-11-19T15:23:51;12.30;1.00
23671;DHT22;12012;51.998;7.614;2023-11-19T15:26:17;12.20;99.90
23671;DHT22;12012;51.998;7.614;2023-11-19T15:28:43;12.10;99.90
23671;DHT22;12012;51.998;7.614;2023-11-19T15:31:09;12.00;99.90
23671;DHT22;12012;51.998;7.614;2023-11-19T15:33:35;11.90;99.90
23671;DHT22;12012;51.998;7.614;2023-11-19T15:36:01;11.80;99.90
23671;DHT22;12012;51.998;7.614;2023-11-19T15:38:28;11.60;1.00
23671;DHT22;12012;51.998;7.614;2023-11-19T15:40:54;11.60;99.90
23671;DHT22;12012;51.998;7.614;2023-11-19T15:43:20;11.50;99.90
23671;DHT22;12012;51.998;7.614;2023-11-19T15:45:46;11.50;99.90
23671;DHT22;12012;51.998;7.614;2023-11-19T15:48:11;11.40;1.00
23671;DHT22;12012;51.998;7.614;2023-11-19T15:50:39;11.30;1.00
23671;DHT22;12012;51.998;7.614;2023-11-19T15:53:04;11.30;1.00
23671;DHT22;12012;51.998;7.614;2023-11-19T15:55:30;11.30;1.00
23671;DHT22;12012;51.998;7.614;2023-11-19T15:57:56;11.20;1.00
23671;DHT22;12012;51.998;7.614;2023-11-19T16:00:21;11.20;1.00